Diamantgracht — PBLQ — position and weather

sailwx.info

Track history (hours):
 
Tides and Currents Weather Stations Pressure Air Temp Water Temp Dewpoint Dewpoint Depression Visibility Wind Speed Wind Dir Waves Ship Positions

Diamantgracht

Last reported at 2018-Feb-21 23:28 UTC. Time now 2018-Feb-21 23:34 UTC.
Position N 32°05' W 081°04'.

Length 157 m; draft 8.3 m.

Type: Cargo ship. MMSI: 244142000.

Date/timePositionNaut miles runAvg speedWind from/ knotsBaromVisibWave heightAir tempDewpointWater temp
2018-Feb-21 23:28N 32°05' W 081°04'0 0.0
2018-Feb-21 22:52N 32°05' W 081°04'0 0.0
2018-Feb-21 22:22N 32°05' W 081°04'0 0.0
2018-Feb-21 21:58N 32°05' W 081°04'0 0.0
2018-Feb-21 21:28N 32°05' W 081°04'0 0.0
2018-Feb-21 20:58N 32°05' W 081°04'0 0.0
2018-Feb-21 20:28N 32°05' W 081°04'0 0.0
2018-Feb-21 19:58N 32°05' W 081°04'0 0.0
2018-Feb-21 19:28N 32°05' W 081°04'0 0.0
2018-Feb-21 18:52N 32°05' W 081°04'0 0.0
2018-Feb-21 18:16N 32°05' W 081°04'0 0.1
2018-Feb-21 17:58N 32°05' W 081°04'0 0.0
2018-Feb-21 17:28N 32°05' W 081°04'0 0.0
2018-Feb-21 16:52N 32°05' W 081°04'0 0.0
2018-Feb-21 16:28N 32°05' W 081°04'0 0.0
2018-Feb-21 15:58N 32°05' W 081°04'0 0.0
2018-Feb-21 15:28N 32°05' W 081°04'0 0.0
2018-Feb-21 14:46N 32°05' W 081°04'0 0.0
2018-Feb-21 14:28N 32°05' W 081°04'0 0.0
2018-Feb-21 13:40N 32°05' W 081°04'0 0.0
2018-Feb-21 13:28N 32°05' W 081°04'0 0.0
2018-Feb-21 12:58N 32°05' W 081°04'0 0.0
2018-Feb-21 12:22N 32°05' W 081°04'0 0.0
2018-Feb-21 11:58N 32°05' W 081°04'0 0.0
2018-Feb-21 11:10N 32°05' W 081°04'0 0.0
2018-Feb-21 10:52N 32°05' W 081°04'0 0.0
2018-Feb-21 10:16N 32°05' W 081°04'0 0.0
2018-Feb-21 09:52N 32°05' W 081°04'0 0.0
2018-Feb-21 09:28N 32°05' W 081°04'0 0.0
2018-Feb-21 08:58N 32°05' W 081°04'0 0.0
2018-Feb-21 08:16N 32°05' W 081°04'0 0.0
2018-Feb-21 07:58N 32°05' W 081°04'0 0.0
2018-Feb-21 07:28N 32°05' W 081°04'0 0.0
2018-Feb-21 06:40N 32°05' W 081°04'0 0.0
2018-Feb-21 06:28N 32°05' W 081°04'0 0.0
2018-Feb-21 05:58N 32°05' W 081°04'0 0.0
2018-Feb-21 05:28N 32°05' W 081°04'0 0.0
2018-Feb-21 04:58N 32°05' W 081°04'0 0.0
2018-Feb-21 04:16N 32°05' W 081°04'0 0.0
2018-Feb-21 03:58N 32°05' W 081°04'0 0.0
2018-Feb-21 03:22N 32°05' W 081°04'0 0.0
2018-Feb-21 02:58N 32°05' W 081°04'0 0.0
2018-Feb-21 02:28N 32°05' W 081°04'0 0.0
2018-Feb-21 01:58N 32°05' W 081°04'0 0.0
2018-Feb-21 01:22N 32°05' W 081°04'0 0.0
2018-Feb-21 00:58N 32°05' W 081°04'0 0.0
2018-Feb-21 00:22N 32°05' W 081°04'0 0.0
2018-Feb-20 23:46N 32°05' W 081°04'0 0.0
2018-Feb-20 23:28N 32°05' W 081°04'0 0.0
2018-Feb-20 22:58N 32°05' W 081°04'0 0.0
2018-Feb-20 22:22N 32°05' W 081°04'0 0.0
2018-Feb-20 21:58N 32°05' W 081°04'0 0.0
2018-Feb-20 21:28N 32°05' W 081°04'0 0.0
2018-Feb-20 20:58N 32°05' W 081°04'0 0.0
2018-Feb-20 20:28N 32°05' W 081°04'0 0.0
2018-Feb-20 19:52N 32°05' W 081°04'0 0.2
2018-Feb-20 19:30N 32°05' W 081°04'2 3.2
2018-Feb-20 19:01N 32°05' W 081°02'4 8.0
2018-Feb-20 18:31N 32°04' W 080°58'4 8.1
2018-Feb-20 18:00N 32°02' W 080°54'611.7
2018-Feb-20 17:30N 31°60' W 080°47'611.3
2018-Feb-20 17:00N 31°57' W 080°41'5 9.6
2018-Feb-20 16:27N 31°52' W 080°39'8 9.5
2018-Feb-20 15:35N 31°44' W 080°38'110.1
2018-Feb-20 15:29N 31°43' W 080°38'35815.2
2018-Feb-19 15:54N 25°49' W 079°33'  
2018-Feb-17 02:46N 28°40' W 093°16'613.4
2018-Feb-17 02:20N 28°45' W 093°20'1213.4
2018-Feb-17 01:27N 28°54' W 093°28'713.6
2018-Feb-17 00:54N 28°60' W 093°33'513.6
2018-Feb-17 00:30N 29°04' W 093°37'713.0
2018-Feb-16 23:59N 29°10' W 093°40'613.4
2018-Feb-16 23:30N 29°17' W 093°40'713.3
2018-Feb-16 23:00N 29°23' W 093°40'612.7
2018-Feb-16 22:30N 29°30' W 093°42'713.4
2018-Feb-16 22:00N 29°34' W 093°47'5 9.7
2018-Feb-16 21:30N 29°39' W 093°50'510.7
2018-Feb-16 21:00N 29°44' W 093°52'5 9.5
2018-Feb-16 20:30N 29°46' W 093°56'4 7.9
2018-Feb-16 20:00N 29°50' W 093°57'2 3.3
2018-Feb-16 19:29N 29°52' W 093°56'0 0.0
2018-Feb-16 19:00N 29°52' W 093°56'0 0.0
2018-Feb-16 18:31N 29°52' W 093°56'0 0.0
2018-Feb-16 18:00N 29°52' W 093°56'0 0.0
2018-Feb-16 17:30N 29°52' W 093°56'0 0.0
2018-Feb-16 17:00N 29°52' W 093°56'0 0.0
2018-Feb-16 16:30N 29°52' W 093°56'0 0.0
2018-Feb-16 16:00N 29°52' W 093°56'0 0.0
2018-Feb-16 15:30N 29°52' W 093°56'0 0.0
2018-Feb-16 15:00N 29°52' W 093°56'0 0.0
2018-Feb-16 14:30N 29°52' W 093°56'0 0.0
2018-Feb-16 14:00N 29°52' W 093°56'0 0.0
2018-Feb-16 13:30N 29°52' W 093°56'0 0.0
2018-Feb-16 13:00N 29°52' W 093°56'0 0.0
2018-Feb-16 12:30N 29°52' W 093°56'0 0.0
2018-Feb-16 12:00N 29°52' W 093°56'0 0.0
2018-Feb-16 11:30N 29°52' W 093°56'0 0.0
2018-Feb-16 11:00N 29°52' W 093°56'0 0.0
2018-Feb-16 10:30N 29°52' W 093°56'0 0.0
2018-Feb-16 10:00N 29°52' W 093°56'0 0.0
2018-Feb-16 09:30N 29°52' W 093°56'0 0.0
2018-Feb-16 09:00N 29°52' W 093°56'0 0.0
2018-Feb-16 08:30N 29°52' W 093°56'0 0.0
2018-Feb-16 08:00N 29°52' W 093°56'0 0.0
2018-Feb-16 07:30N 29°52' W 093°56'0 0.0
2018-Feb-16 07:00N 29°52' W 093°56'0 0.0
2018-Feb-16 06:30N 29°52' W 093°56'0 0.0
2018-Feb-16 06:00N 29°52' W 093°56'0 0.0
2018-Feb-16 05:30N 29°52' W 093°56'0 0.0
2018-Feb-16 05:00N 29°52' W 093°56'0 0.0
2018-Feb-16 04:30N 29°52' W 093°56'0 0.0
2018-Feb-16 04:00N 29°52' W 093°56'0 0.0
2018-Feb-16 03:30N 29°52' W 093°56'0 0.0
2018-Feb-16 03:00N 29°52' W 093°56'0 0.0
2018-Feb-16 02:30N 29°52' W 093°56'0 0.0
2018-Feb-16 02:00N 29°52' W 093°56'0 0.0
2018-Feb-16 01:30N 29°52' W 093°56'0 0.0
2018-Feb-16 01:00N 29°52' W 093°56'0 0.0
2018-Feb-16 00:30N 29°52' W 093°56'0 0.0
2018-Feb-16 00:00N 29°52' W 093°56'0 0.0
2018-Feb-15 23:30N 29°52' W 093°56'0 0.0
2018-Feb-15 23:00N 29°52' W 093°56'0 0.0
2018-Feb-15 22:30N 29°52' W 093°56'0 0.0
2018-Feb-15 22:00N 29°52' W 093°56'0 0.0
2018-Feb-15 21:30N 29°52' W 093°56'0 0.0
2018-Feb-15 21:00N 29°52' W 093°56'0 0.0
2018-Feb-15 20:30N 29°52' W 093°56'0 0.0
2018-Feb-15 20:00N 29°52' W 093°56'0 0.0
2018-Feb-15 19:30N 29°52' W 093°56'0 0.0
2018-Feb-15 19:00N 29°52' W 093°56'0 0.0
2018-Feb-15 18:30N 29°52' W 093°56'0 0.0
2018-Feb-15 17:59N 29°52' W 093°56'0 0.0
2018-Feb-15 17:29N 29°52' W 093°56'0 0.0
2018-Feb-15 16:59N 29°52' W 093°56'0 0.0
2018-Feb-15 16:29N 29°52' W 093°56'0 0.0
2018-Feb-15 15:59N 29°52' W 093°56'0 0.0
2018-Feb-15 15:29N 29°52' W 093°56'0 0.0
2018-Feb-15 14:59N 29°52' W 093°56'0 0.0
2018-Feb-15 14:29N 29°52' W 093°56'0 0.0
2018-Feb-15 13:59N 29°52' W 093°56'0 0.0
2018-Feb-15 13:29N 29°52' W 093°56'0 0.0
2018-Feb-15 12:59N 29°52' W 093°56'0 0.0
2018-Feb-15 12:29N 29°52' W 093°56'0 0.0
2018-Feb-15 11:59N 29°52' W 093°56'0 0.0
2018-Feb-15 11:29N 29°52' W 093°56'0 0.0
2018-Feb-15 10:59N 29°52' W 093°56'0 0.0
2018-Feb-15 10:29N 29°52' W 093°56'0 0.0
2018-Feb-15 09:59N 29°52' W 093°56'0 0.0
2018-Feb-15 09:29N 29°52' W 093°56'0 0.0
2018-Feb-15 08:59N 29°52' W 093°56'0 0.0
2018-Feb-15 08:29N 29°52' W 093°56'0 0.0
2018-Feb-15 07:59N 29°52' W 093°56'0 0.0
2018-Feb-15 07:29N 29°52' W 093°56'0 0.0
2018-Feb-15 06:59N 29°52' W 093°56'0 0.0
2018-Feb-15 06:29N 29°52' W 093°56'0 0.0
2018-Feb-15 05:59N 29°52' W 093°56'0 0.0
2018-Feb-15 05:29N 29°52' W 093°56'0 0.0
2018-Feb-15 04:59N 29°52' W 093°56'0 0.0
2018-Feb-15 04:29N 29°52' W 093°56'0 0.2
2018-Feb-15 03:59N 29°52' W 093°56'0 0.2
2018-Feb-15 03:29N 29°52' W 093°56'0 0.0
2018-Feb-15 02:59N 29°52' W 093°56'0 0.0
2018-Feb-15 02:29N 29°52' W 093°56'0 0.0
2018-Feb-15 01:59N 29°52' W 093°56'0 0.0
2018-Feb-15 01:29N 29°52' W 093°56'0 0.0
2018-Feb-15 00:59N 29°52' W 093°56'0 0.0
2018-Feb-15 00:29N 29°52' W 093°56'0 0.0
2018-Feb-14 23:59N 29°52' W 093°56'0 0.0
2018-Feb-14 23:29N 29°52' W 093°56'0 0.0
2018-Feb-14 22:59N 29°52' W 093°56'0 0.0
2018-Feb-14 22:29N 29°52' W 093°56'0 0.0
2018-Feb-14 21:59N 29°52' W 093°56'0 0.0
2018-Feb-14 21:29N 29°52' W 093°56'0 0.0
2018-Feb-14 20:59N 29°52' W 093°56'0 0.0
2018-Feb-14 20:29N 29°52' W 093°56'0 0.0
2018-Feb-14 19:59N 29°52' W 093°56'0 0.0
2018-Feb-14 19:29N 29°52' W 093°56'0 0.0
2018-Feb-14 18:59N 29°52' W 093°56'0 0.0
2018-Feb-14 18:29N 29°52' W 093°56'0 0.0
2018-Feb-14 17:59N 29°52' W 093°56'0 0.0
2018-Feb-14 17:29N 29°52' W 093°56'0 0.0
2018-Feb-14 16:59N 29°52' W 093°56'0 0.0
2018-Feb-14 16:29N 29°52' W 093°56'0 0.0
2018-Feb-14 15:59N 29°52' W 093°56'0 0.0
2018-Feb-14 15:29N 29°52' W 093°56'0 0.0
2018-Feb-14 14:59N 29°52' W 093°56'0 0.0
2018-Feb-14 14:29N 29°52' W 093°56'0 0.0
2018-Feb-14 13:59N 29°52' W 093°56'0 0.0
2018-Feb-14 13:29N 29°52' W 093°56'0 0.0
2018-Feb-14 12:59N 29°52' W 093°56'0 0.0
2018-Feb-14 12:29N 29°52' W 093°56'0 0.0
2018-Feb-14 11:59N 29°52' W 093°56'0 0.0
2018-Feb-14 11:29N 29°52' W 093°56'0 0.0
2018-Feb-14 10:59N 29°52' W 093°56'0 0.0
2018-Feb-14 10:29N 29°52' W 093°56'0 0.0
2018-Feb-14 09:59N 29°52' W 093°56'0 0.0
2018-Feb-14 09:29N 29°52' W 093°56'0 0.0
2018-Feb-14 08:59N 29°52' W 093°56'0 0.0
2018-Feb-14 08:29N 29°52' W 093°56'0 0.0
2018-Feb-14 07:59N 29°52' W 093°56'0 0.0
2018-Feb-14 07:29N 29°52' W 093°56'0 0.0
2018-Feb-14 06:59N 29°52' W 093°56'0 0.0
2018-Feb-14 06:29N 29°52' W 093°56'0 0.0
2018-Feb-14 05:59N 29°52' W 093°56'0 0.0
2018-Feb-14 05:29N 29°52' W 093°56'0 0.0
2018-Feb-14 04:59N 29°52' W 093°56'0 0.0
2018-Feb-14 04:29N 29°52' W 093°56'0 0.0
2018-Feb-14 03:59N 29°52' W 093°56'0 0.0
2018-Feb-14 03:29N 29°52' W 093°56'0 0.0
2018-Feb-14 02:59N 29°52' W 093°56'0 0.0
2018-Feb-14 02:29N 29°52' W 093°56'0 0.0
2018-Feb-14 01:59N 29°52' W 093°56'0 0.0
2018-Feb-14 01:29N 29°52' W 093°56'0 0.0
2018-Feb-14 00:59N 29°52' W 093°56'0 0.0
2018-Feb-14 00:29N 29°52' W 093°56'0 0.0
2018-Feb-13 23:56N 29°52' W 093°56'0 0.0
2018-Feb-13 23:29N 29°52' W 093°56'0 0.0
2018-Feb-13 22:59N 29°52' W 093°56'0 0.0
2018-Feb-13 22:29N 29°52' W 093°56'0 0.0
2018-Feb-13 21:59N 29°52' W 093°56'0 0.0
2018-Feb-13 21:29N 29°52' W 093°56'0 0.0
2018-Feb-13 20:59N 29°52' W 093°56'0 0.0
2018-Feb-13 20:29N 29°52' W 093°56'0 0.0
2018-Feb-13 19:59N 29°52' W 093°56'0 0.0
2018-Feb-13 19:29N 29°52' W 093°56'0 0.0
2018-Feb-13 18:59N 29°52' W 093°56'0 0.0
2018-Feb-13 18:29N 29°52' W 093°56'0 0.0
2018-Feb-13 17:59N 29°52' W 093°56'0 0.0
2018-Feb-13 17:29N 29°52' W 093°56'0 0.0
2018-Feb-13 16:59N 29°52' W 093°56'0 0.0
2018-Feb-13 16:29N 29°52' W 093°56'0 0.0
2018-Feb-13 15:59N 29°52' W 093°56'0 0.0
2018-Feb-13 15:29N 29°52' W 093°56'0 0.0
2018-Feb-13 14:59N 29°52' W 093°56'0 0.0
2018-Feb-13 14:29N 29°52' W 093°56'0 0.0
2018-Feb-13 13:59N 29°52' W 093°56'0 0.0
2018-Feb-13 13:29N 29°52' W 093°56'0 0.0
2018-Feb-13 12:59N 29°52' W 093°56'0 0.0
2018-Feb-13 12:29N 29°52' W 093°56'0 0.0
2018-Feb-13 11:59N 29°52' W 093°56'0 0.0
2018-Feb-13 11:29N 29°52' W 093°56'0 0.0
2018-Feb-13 10:59N 29°52' W 093°56'0 0.0
2018-Feb-13 10:29N 29°52' W 093°56'0 0.0
2018-Feb-13 09:59N 29°52' W 093°56'0 0.0
2018-Feb-13 09:29N 29°52' W 093°56'0 0.0
2018-Feb-13 08:59N 29°52' W 093°56'0 0.0
2018-Feb-13 08:29N 29°52' W 093°56'0 0.0
2018-Feb-13 07:59N 29°52' W 093°56'0 0.0
2018-Feb-13 07:29N 29°52' W 093°56'0 0.0
2018-Feb-13 06:59N 29°52' W 093°56'0 0.0
2018-Feb-13 06:29N 29°52' W 093°56'0 0.0
2018-Feb-13 05:59N 29°52' W 093°56'0 0.1
2018-Feb-13 05:31N 29°52' W 093°56'2 4.0
2018-Feb-13 05:00N 29°50' W 093°57'4 8.9
2018-Feb-13 04:30N 29°46' W 093°55'510.3
2018-Feb-13 04:00N 29°42' W 093°51'713.5
2018-Feb-13 03:31N 29°36' W 093°48'4 8.9
2018-Feb-13 03:00N 29°34' W 093°43'1 2.6
2018-Feb-13 02:26N 29°34' W 093°42'0 0.0
2018-Feb-13 01:56N 29°34' W 093°42'0 0.0
2018-Feb-13 01:30N 29°34' W 093°42'0 0.0
2018-Feb-13 00:59N 29°34' W 093°42'0 0.0
2018-Feb-13 00:29N 29°34' W 093°42'0 0.0
2018-Feb-12 23:59N 29°34' W 093°42'0 0.0
2018-Feb-12 23:29N 29°34' W 093°42'0 0.0
2018-Feb-12 22:59N 29°34' W 093°42'0 0.0
2018-Feb-12 22:29N 29°34' W 093°42'0 0.0
2018-Feb-12 21:56N 29°34' W 093°42'0 0.0
2018-Feb-12 21:26N 29°34' W 093°42'0 0.0
2018-Feb-12 20:59N 29°34' W 093°42'0 0.0
2018-Feb-12 20:29N 29°34' W 093°42'0 0.0
2018-Feb-12 19:59N 29°34' W 093°42'0 0.0
2018-Feb-12 19:29N 29°34' W 093°42'0 0.0
2018-Feb-12 18:59N 29°34' W 093°42'0 0.0
2018-Feb-12 18:29N 29°34' W 093°42'0 0.0
2018-Feb-12 17:59N 29°34' W 093°42'0 0.0
2018-Feb-12 17:29N 29°34' W 093°42'0 0.0
2018-Feb-12 16:59N 29°34' W 093°42'0 0.0
2018-Feb-12 16:29N 29°34' W 093°42'0 0.0
2018-Feb-12 15:59N 29°34' W 093°42'0 0.0
2018-Feb-12 15:14N 29°34' W 093°42'0 0.1
2018-Feb-12 14:59N 29°34' W 093°42'0 0.0
2018-Feb-12 13:14N 29°34' W 093°42'0 0.2
2018-Feb-12 12:53N 29°34' W 093°42'1 3.7
2018-Feb-12 12:30N 29°34' W 093°43'611.1
2018-Feb-12 12:00N 29°30' W 093°48'613.4
2018-Feb-12 11:30N 29°29' W 093°56'49 5.4
2018-Feb-12 02:33N 29°29' W 094°52'110.4
2018-Feb-12 02:30N 29°29' W 094°52'5 9.8
2018-Feb-12 02:00N 29°33' W 094°55'510.6
2018-Feb-12 01:30N 29°38' W 094°58'610.9
2018-Feb-12 00:59N 29°43' W 095°01'5 8.4
2018-Feb-12 00:27N 29°46' W 095°05'  
Track history (hours):
 
Tides and Currents Weather Stations Pressure Air Temp Water Temp Dewpoint Dewpoint Depression Visibility Wind Speed Wind Dir Waves Ship Positions

Diamantgracht

Last reported at 2018-Feb-21 23:28 UTC. Time now 2018-Feb-21 23:34 UTC.
Position N 32°05' W 081°04'.

Length 157 m; draft 8.3 m.

Type: Cargo ship. MMSI: 244142000.

Date/timePositionNaut miles runAvg speedWind from/ knotsBaromVisibWave heightAir tempDewpointWater temp
2018-Feb-21 23:28N 32°05' W 081°04'0 0.0
2018-Feb-21 22:52N 32°05' W 081°04'0 0.0
2018-Feb-21 22:22N 32°05' W 081°04'0 0.0
2018-Feb-21 21:58N 32°05' W 081°04'0 0.0
2018-Feb-21 21:28N 32°05' W 081°04'0 0.0
2018-Feb-21 20:58N 32°05' W 081°04'0 0.0
2018-Feb-21 20:28N 32°05' W 081°04'0 0.0
2018-Feb-21 19:58N 32°05' W 081°04'0 0.0
2018-Feb-21 19:28N 32°05' W 081°04'0 0.0
2018-Feb-21 18:52N 32°05' W 081°04'0 0.0
2018-Feb-21 18:16N 32°05' W 081°04'0 0.1
2018-Feb-21 17:58N 32°05' W 081°04'0 0.0
2018-Feb-21 17:28N 32°05' W 081°04'0 0.0
2018-Feb-21 16:52N 32°05' W 081°04'0 0.0
2018-Feb-21 16:28N 32°05' W 081°04'0 0.0
2018-Feb-21 15:58N 32°05' W 081°04'0 0.0
2018-Feb-21 15:28N 32°05' W 081°04'0 0.0
2018-Feb-21 14:46N 32°05' W 081°04'0 0.0
2018-Feb-21 14:28N 32°05' W 081°04'0 0.0
2018-Feb-21 13:40N 32°05' W 081°04'0 0.0
2018-Feb-21 13:28N 32°05' W 081°04'0 0.0
2018-Feb-21 12:58N 32°05' W 081°04'0 0.0
2018-Feb-21 12:22N 32°05' W 081°04'0 0.0
2018-Feb-21 11:58N 32°05' W 081°04'0 0.0
2018-Feb-21 11:10N 32°05' W 081°04'0 0.0
2018-Feb-21 10:52N 32°05' W 081°04'0 0.0
2018-Feb-21 10:16N 32°05' W 081°04'0 0.0
2018-Feb-21 09:52N 32°05' W 081°04'0 0.0
2018-Feb-21 09:28N 32°05' W 081°04'0 0.0
2018-Feb-21 08:58N 32°05' W 081°04'0 0.0
2018-Feb-21 08:16N 32°05' W 081°04'0 0.0
2018-Feb-21 07:58N 32°05' W 081°04'0 0.0
2018-Feb-21 07:28N 32°05' W 081°04'0 0.0
2018-Feb-21 06:40N 32°05' W 081°04'0 0.0
2018-Feb-21 06:28N 32°05' W 081°04'0 0.0
2018-Feb-21 05:58N 32°05' W 081°04'0 0.0
2018-Feb-21 05:28N 32°05' W 081°04'0 0.0
2018-Feb-21 04:58N 32°05' W 081°04'0 0.0
2018-Feb-21 04:16N 32°05' W 081°04'0 0.0
2018-Feb-21 03:58N 32°05' W 081°04'0 0.0
2018-Feb-21 03:22N 32°05' W 081°04'0 0.0
2018-Feb-21 02:58N 32°05' W 081°04'0 0.0
2018-Feb-21 02:28N 32°05' W 081°04'0 0.0
2018-Feb-21 01:58N 32°05' W 081°04'0 0.0
2018-Feb-21 01:22N 32°05' W 081°04'0 0.0
2018-Feb-21 00:58N 32°05' W 081°04'0 0.0
2018-Feb-21 00:22N 32°05' W 081°04'0 0.0
2018-Feb-20 23:46N 32°05' W 081°04'0 0.0
2018-Feb-20 23:28N 32°05' W 081°04'0 0.0
2018-Feb-20 22:58N 32°05' W 081°04'0 0.0
2018-Feb-20 22:22N 32°05' W 081°04'0 0.0
2018-Feb-20 21:58N 32°05' W 081°04'0 0.0
2018-Feb-20 21:28N 32°05' W 081°04'0 0.0
2018-Feb-20 20:58N 32°05' W 081°04'0 0.0
2018-Feb-20 20:28N 32°05' W 081°04'0 0.0
2018-Feb-20 19:52N 32°05' W 081°04'0 0.2
2018-Feb-20 19:30N 32°05' W 081°04'2 3.2
2018-Feb-20 19:01N 32°05' W 081°02'4 8.0
2018-Feb-20 18:31N 32°04' W 080°58'4 8.1
2018-Feb-20 18:00N 32°02' W 080°54'611.7
2018-Feb-20 17:30N 31°60' W 080°47'611.3
2018-Feb-20 17:00N 31°57' W 080°41'5 9.6
2018-Feb-20 16:27N 31°52' W 080°39'8 9.5
2018-Feb-20 15:35N 31°44' W 080°38'110.1
2018-Feb-20 15:29N 31°43' W 080°38'35815.2
2018-Feb-19 15:54N 25°49' W 079°33'  
2018-Feb-17 02:46N 28°40' W 093°16'613.4
2018-Feb-17 02:20N 28°45' W 093°20'1213.4
2018-Feb-17 01:27N 28°54' W 093°28'713.6
2018-Feb-17 00:54N 28°60' W 093°33'513.6
2018-Feb-17 00:30N 29°04' W 093°37'713.0
2018-Feb-16 23:59N 29°10' W 093°40'613.4
2018-Feb-16 23:30N 29°17' W 093°40'713.3
2018-Feb-16 23:00N 29°23' W 093°40'612.7
2018-Feb-16 22:30N 29°30' W 093°42'713.4
2018-Feb-16 22:00N 29°34' W 093°47'5 9.7
2018-Feb-16 21:30N 29°39' W 093°50'510.7
2018-Feb-16 21:00N 29°44' W 093°52'5 9.5
2018-Feb-16 20:30N 29°46' W 093°56'4 7.9
2018-Feb-16 20:00N 29°50' W 093°57'2 3.3
2018-Feb-16 19:29N 29°52' W 093°56'0 0.0
2018-Feb-16 19:00N 29°52' W 093°56'0 0.0
2018-Feb-16 18:31N 29°52' W 093°56'0 0.0
2018-Feb-16 18:00N 29°52' W 093°56'0 0.0
2018-Feb-16 17:30N 29°52' W 093°56'0 0.0
2018-Feb-16 17:00N 29°52' W 093°56'0 0.0
2018-Feb-16 16:30N 29°52' W 093°56'0 0.0
2018-Feb-16 16:00N 29°52' W 093°56'0 0.0
2018-Feb-16 15:30N 29°52' W 093°56'0 0.0
2018-Feb-16 15:00N 29°52' W 093°56'0 0.0
2018-Feb-16 14:30N 29°52' W 093°56'0 0.0
2018-Feb-16 14:00N 29°52' W 093°56'0 0.0
2018-Feb-16 13:30N 29°52' W 093°56'0 0.0
2018-Feb-16 13:00N 29°52' W 093°56'0 0.0
2018-Feb-16 12:30N 29°52' W 093°56'0 0.0
2018-Feb-16 12:00N 29°52' W 093°56'0 0.0
2018-Feb-16 11:30N 29°52' W 093°56'0 0.0
2018-Feb-16 11:00N 29°52' W 093°56'0 0.0
2018-Feb-16 10:30N 29°52' W 093°56'0 0.0
2018-Feb-16 10:00N 29°52' W 093°56'0 0.0
2018-Feb-16 09:30N 29°52' W 093°56'0 0.0
2018-Feb-16 09:00N 29°52' W 093°56'0 0.0
2018-Feb-16 08:30N 29°52' W 093°56'0 0.0
2018-Feb-16 08:00N 29°52' W 093°56'0 0.0
2018-Feb-16 07:30N 29°52' W 093°56'0 0.0
2018-Feb-16 07:00N 29°52' W 093°56'0 0.0
2018-Feb-16 06:30N 29°52' W 093°56'0 0.0
2018-Feb-16 06:00N 29°52' W 093°56'0 0.0
2018-Feb-16 05:30N 29°52' W 093°56'0 0.0
2018-Feb-16 05:00N 29°52' W 093°56'0 0.0
2018-Feb-16 04:30N 29°52' W 093°56'0 0.0
2018-Feb-16 04:00N 29°52' W 093°56'0 0.0
2018-Feb-16 03:30N 29°52' W 093°56'0 0.0
2018-Feb-16 03:00N 29°52' W 093°56'0 0.0
2018-Feb-16 02:30N 29°52' W 093°56'0 0.0
2018-Feb-16 02:00N 29°52' W 093°56'0 0.0
2018-Feb-16 01:30N 29°52' W 093°56'0 0.0
2018-Feb-16 01:00N 29°52' W 093°56'0 0.0
2018-Feb-16 00:30N 29°52' W 093°56'0 0.0
2018-Feb-16 00:00N 29°52' W 093°56'0 0.0
2018-Feb-15 23:30N 29°52' W 093°56'0 0.0
2018-Feb-15 23:00N 29°52' W 093°56'0 0.0
2018-Feb-15 22:30N 29°52' W 093°56'0 0.0
2018-Feb-15 22:00N 29°52' W 093°56'0 0.0
2018-Feb-15 21:30N 29°52' W 093°56'0 0.0
2018-Feb-15 21:00N 29°52' W 093°56'0 0.0
2018-Feb-15 20:30N 29°52' W 093°56'0 0.0
2018-Feb-15 20:00N 29°52' W 093°56'0 0.0
2018-Feb-15 19:30N 29°52' W 093°56'0 0.0
2018-Feb-15 19:00N 29°52' W 093°56'0 0.0
2018-Feb-15 18:30N 29°52' W 093°56'0 0.0
2018-Feb-15 17:59N 29°52' W 093°56'0 0.0
2018-Feb-15 17:29N 29°52' W 093°56'0 0.0
2018-Feb-15 16:59N 29°52' W 093°56'0 0.0
2018-Feb-15 16:29N 29°52' W 093°56'0 0.0
2018-Feb-15 15:59N 29°52' W 093°56'0 0.0
2018-Feb-15 15:29N 29°52' W 093°56'0 0.0
2018-Feb-15 14:59N 29°52' W 093°56'0 0.0
2018-Feb-15 14:29N 29°52' W 093°56'0 0.0
2018-Feb-15 13:59N 29°52' W 093°56'0 0.0
2018-Feb-15 13:29N 29°52' W 093°56'0 0.0
2018-Feb-15 12:59N 29°52' W 093°56'0 0.0
2018-Feb-15 12:29N 29°52' W 093°56'0 0.0
2018-Feb-15 11:59N 29°52' W 093°56'0 0.0
2018-Feb-15 11:29N 29°52' W 093°56'0 0.0
2018-Feb-15 10:59N 29°52' W 093°56'0 0.0
2018-Feb-15 10:29N 29°52' W 093°56'0 0.0
2018-Feb-15 09:59N 29°52' W 093°56'0 0.0
2018-Feb-15 09:29N 29°52' W 093°56'0 0.0
2018-Feb-15 08:59N 29°52' W 093°56'0 0.0
2018-Feb-15 08:29N 29°52' W 093°56'0 0.0
2018-Feb-15 07:59N 29°52' W 093°56'0 0.0
2018-Feb-15 07:29N 29°52' W 093°56'0 0.0
2018-Feb-15 06:59N 29°52' W 093°56'0 0.0
2018-Feb-15 06:29N 29°52' W 093°56'0 0.0
2018-Feb-15 05:59N 29°52' W 093°56'0 0.0
2018-Feb-15 05:29N 29°52' W 093°56'0 0.0
2018-Feb-15 04:59N 29°52' W 093°56'0 0.0
2018-Feb-15 04:29N 29°52' W 093°56'0 0.2
2018-Feb-15 03:59N 29°52' W 093°56'0 0.2
2018-Feb-15 03:29N 29°52' W 093°56'0 0.0
2018-Feb-15 02:59N 29°52' W 093°56'0 0.0
2018-Feb-15 02:29N 29°52' W 093°56'0 0.0
2018-Feb-15 01:59N 29°52' W 093°56'0 0.0
2018-Feb-15 01:29N 29°52' W 093°56'0 0.0
2018-Feb-15 00:59N 29°52' W 093°56'0 0.0
2018-Feb-15 00:29N 29°52' W 093°56'0 0.0
2018-Feb-14 23:59N 29°52' W 093°56'0 0.0
2018-Feb-14 23:29N 29°52' W 093°56'0 0.0
2018-Feb-14 22:59N 29°52' W 093°56'0 0.0
2018-Feb-14 22:29N 29°52' W 093°56'0 0.0
2018-Feb-14 21:59N 29°52' W 093°56'0 0.0
2018-Feb-14 21:29N 29°52' W 093°56'0 0.0
2018-Feb-14 20:59N 29°52' W 093°56'0 0.0
2018-Feb-14 20:29N 29°52' W 093°56'0 0.0
2018-Feb-14 19:59N 29°52' W 093°56'0 0.0
2018-Feb-14 19:29N 29°52' W 093°56'0 0.0
2018-Feb-14 18:59N 29°52' W 093°56'0 0.0
2018-Feb-14 18:29N 29°52' W 093°56'0 0.0
2018-Feb-14 17:59N 29°52' W 093°56'0 0.0
2018-Feb-14 17:29N 29°52' W 093°56'0 0.0
2018-Feb-14 16:59N 29°52' W 093°56'0 0.0
2018-Feb-14 16:29N 29°52' W 093°56'0 0.0
2018-Feb-14 15:59N 29°52' W 093°56'0 0.0
2018-Feb-14 15:29N 29°52' W 093°56'0 0.0
2018-Feb-14 14:59N 29°52' W 093°56'0 0.0
2018-Feb-14 14:29N 29°52' W 093°56'0 0.0
2018-Feb-14 13:59N 29°52' W 093°56'0 0.0
2018-Feb-14 13:29N 29°52' W 093°56'0 0.0
2018-Feb-14 12:59N 29°52' W 093°56'0 0.0
2018-Feb-14 12:29N 29°52' W 093°56'0 0.0
2018-Feb-14 11:59N 29°52' W 093°56'0 0.0
2018-Feb-14 11:29N 29°52' W 093°56'0 0.0
2018-Feb-14 10:59N 29°52' W 093°56'0 0.0
2018-Feb-14 10:29N 29°52' W 093°56'0 0.0
2018-Feb-14 09:59N 29°52' W 093°56'0 0.0
2018-Feb-14 09:29N 29°52' W 093°56'0 0.0
2018-Feb-14 08:59N 29°52' W 093°56'0 0.0
2018-Feb-14 08:29N 29°52' W 093°56'0 0.0
2018-Feb-14 07:59N 29°52' W 093°56'0 0.0
2018-Feb-14 07:29N 29°52' W 093°56'0 0.0
2018-Feb-14 06:59N 29°52' W 093°56'0 0.0
2018-Feb-14 06:29N 29°52' W 093°56'0 0.0
2018-Feb-14 05:59N 29°52' W 093°56'0 0.0
2018-Feb-14 05:29N 29°52' W 093°56'0 0.0
2018-Feb-14 04:59N 29°52' W 093°56'0 0.0
2018-Feb-14 04:29N 29°52' W 093°56'0 0.0
2018-Feb-14 03:59N 29°52' W 093°56'0 0.0
2018-Feb-14 03:29N 29°52' W 093°56'0 0.0
2018-Feb-14 02:59N 29°52' W 093°56'0 0.0
2018-Feb-14 02:29N 29°52' W 093°56'0 0.0
2018-Feb-14 01:59N 29°52' W 093°56'0 0.0
2018-Feb-14 01:29N 29°52' W 093°56'0 0.0
2018-Feb-14 00:59N 29°52' W 093°56'0 0.0
2018-Feb-14 00:29N 29°52' W 093°56'0 0.0
2018-Feb-13 23:56N 29°52' W 093°56'0 0.0
2018-Feb-13 23:29N 29°52' W 093°56'0 0.0
2018-Feb-13 22:59N 29°52' W 093°56'0 0.0
2018-Feb-13 22:29N 29°52' W 093°56'0 0.0
2018-Feb-13 21:59N 29°52' W 093°56'0 0.0
2018-Feb-13 21:29N 29°52' W 093°56'0 0.0
2018-Feb-13 20:59N 29°52' W 093°56'0 0.0
2018-Feb-13 20:29N 29°52' W 093°56'0 0.0
2018-Feb-13 19:59N 29°52' W 093°56'0 0.0
2018-Feb-13 19:29N 29°52' W 093°56'0 0.0
2018-Feb-13 18:59N 29°52' W 093°56'0 0.0
2018-Feb-13 18:29N 29°52' W 093°56'0 0.0
2018-Feb-13 17:59N 29°52' W 093°56'0 0.0
2018-Feb-13 17:29N 29°52' W 093°56'0 0.0
2018-Feb-13 16:59N 29°52' W 093°56'0 0.0
2018-Feb-13 16:29N 29°52' W 093°56'0 0.0
2018-Feb-13 15:59N 29°52' W 093°56'0 0.0
2018-Feb-13 15:29N 29°52' W 093°56'0 0.0
2018-Feb-13 14:59N 29°52' W 093°56'0 0.0
2018-Feb-13 14:29N 29°52' W 093°56'0 0.0
2018-Feb-13 13:59N 29°52' W 093°56'0 0.0
2018-Feb-13 13:29N 29°52' W 093°56'0 0.0
2018-Feb-13 12:59N 29°52' W 093°56'0 0.0
2018-Feb-13 12:29N 29°52' W 093°56'0 0.0
2018-Feb-13 11:59N 29°52' W 093°56'0 0.0
2018-Feb-13 11:29N 29°52' W 093°56'0 0.0
2018-Feb-13 10:59N 29°52' W 093°56'0 0.0
2018-Feb-13 10:29N 29°52' W 093°56'0 0.0
2018-Feb-13 09:59N 29°52' W 093°56'0 0.0
2018-Feb-13 09:29N 29°52' W 093°56'0 0.0
2018-Feb-13 08:59N 29°52' W 093°56'0 0.0
2018-Feb-13 08:29N 29°52' W 093°56'0 0.0
2018-Feb-13 07:59N 29°52' W 093°56'0 0.0
2018-Feb-13 07:29N 29°52' W 093°56'0 0.0
2018-Feb-13 06:59N 29°52' W 093°56'0 0.0
2018-Feb-13 06:29N 29°52' W 093°56'0 0.0
2018-Feb-13 05:59N 29°52' W 093°56'0 0.1
2018-Feb-13 05:31N 29°52' W 093°56'2 4.0
2018-Feb-13 05:00N 29°50' W 093°57'4 8.9
2018-Feb-13 04:30N 29°46' W 093°55'510.3
2018-Feb-13 04:00N 29°42' W 093°51'713.5
2018-Feb-13 03:31N 29°36' W 093°48'4 8.9
2018-Feb-13 03:00N 29°34' W 093°43'1 2.6
2018-Feb-13 02:26N 29°34' W 093°42'0 0.0
2018-Feb-13 01:56N 29°34' W 093°42'0 0.0
2018-Feb-13 01:30N 29°34' W 093°42'0 0.0
2018-Feb-13 00:59N 29°34' W 093°42'0 0.0
2018-Feb-13 00:29N 29°34' W 093°42'0 0.0
2018-Feb-12 23:59N 29°34' W 093°42'0 0.0
2018-Feb-12 23:29N 29°34' W 093°42'0 0.0
2018-Feb-12 22:59N 29°34' W 093°42'0 0.0
2018-Feb-12 22:29N 29°34' W 093°42'0 0.0
2018-Feb-12 21:56N 29°34' W 093°42'0 0.0
2018-Feb-12 21:26N 29°34' W 093°42'0 0.0
2018-Feb-12 20:59N 29°34' W 093°42'0 0.0
2018-Feb-12 20:29N 29°34' W 093°42'0 0.0
2018-Feb-12 19:59N 29°34' W 093°42'0 0.0
2018-Feb-12 19:29N 29°34' W 093°42'0 0.0
2018-Feb-12 18:59N 29°34' W 093°42'0 0.0
2018-Feb-12 18:29N 29°34' W 093°42'0 0.0
2018-Feb-12 17:59N 29°34' W 093°42'0 0.0
2018-Feb-12 17:29N 29°34' W 093°42'0 0.0
2018-Feb-12 16:59N 29°34' W 093°42'0 0.0
2018-Feb-12 16:29N 29°34' W 093°42'0 0.0
2018-Feb-12 15:59N 29°34' W 093°42'0 0.0
2018-Feb-12 15:14N 29°34' W 093°42'0 0.1
2018-Feb-12 14:59N 29°34' W 093°42'0 0.0
2018-Feb-12 13:14N 29°34' W 093°42'0 0.2
2018-Feb-12 12:53N 29°34' W 093°42'1 3.7
2018-Feb-12 12:30N 29°34' W 093°43'611.1
2018-Feb-12 12:00N 29°30' W 093°48'613.4
2018-Feb-12 11:30N 29°29' W 093°56'49 5.4
2018-Feb-12 02:33N 29°29' W 094°52'110.4
2018-Feb-12 02:30N 29°29' W 094°52'5 9.8
2018-Feb-12 02:00N 29°33' W 094°55'510.6
2018-Feb-12 01:30N 29°38' W 094°58'610.9
2018-Feb-12 00:59N 29°43' W 095°01'5 8.4
2018-Feb-12 00:27N 29°46' W 095°05'  

Dump ship's entire track history